Time;durP1;ratioP1;P1;durP2;ratioP2;P2;SDS_P1;SDS_P2;PMS_P1;PMS_P2;Temp;Humidity;BMP_temperature;BMP_pressure;BME280_temperature;BME280_humidity;BME280_pressure;Samples;Min_cycle;Max_cycle;Signal;HPM_P1;HPM_P2
2023/04/28 00:00:08;;;;;;;14.07;10.25;;;;;;;8.88;68.32;101263.94;5036968;28;20501;-51
2023/04/28 00:02:34;;;;;;;12.52;9.43;;;;;;;8.86;67.74;101262.34;5038091;28;20030;-50
2023/04/28 00:04:59;;;;;;;11.80;9.50;;;;;;;8.83;68.86;101266.03;5029948;28;20452;-50
2023/04/28 00:07:25;;;;;;;12.88;9.93;;;;;;;8.82;69.35;101272.28;5034003;28;20032;-51
2023/04/28 00:09:50;;;;;;;15.05;10.18;;;;;;;8.80;68.99;101268.88;5050178;28;20540;-50
2023/04/28 00:12:16;;;;;;;14.60;10.10;;;;;;;8.81;69.23;101259.13;5046470;28;20031;-51
2023/04/28 00:14:41;;;;;;;14.40;9.90;;;;;;;8.78;69.36;101248.75;5037586;28;20068;-51
2023/04/28 00:17:08;;;;;;;14.18;10.93;;;;;;;8.78;70.75;101256.69;5035523;28;20631;-51
2023/04/28 00:19:33;;;;;;;15.07;10.10;;;;;;;8.77;72.94;101247.03;5027062;28;20076;-51
2023/04/28 00:21:58;;;;;;;13.50;10.57;;;;;;;8.77;72.69;101247.03;5014758;28;20038;-51
2023/04/28 00:24:24;;;;;;;12.27;10.32;;;;;;;8.76;73.00;101238.25;5016344;28;20427;-50
2023/04/28 00:26:49;;;;;;;16.85;10.73;;;;;;;8.72;73.28;101249.97;5041062;28;20030;-50
2023/04/28 00:29:15;;;;;;;13.13;9.98;;;;;;;8.70;73.63;101252.69;5021592;28;20030;-51
2023/04/28 00:31:40;;;;;;;19.95;11.50;;;;;;;8.70;73.42;101238.63;5047563;28;20491;-50
2023/04/28 00:34:05;;;;;;;16.08;11.50;;;;;;;8.67;75.58;101226.41;5044354;28;20427;-50
2023/04/28 00:36:32;;;;;;;14.32;11.43;;;;;;;8.66;74.81;101213.25;5028292;28;20022;-50
2023/04/28 00:38:58;;;;;;;15.30;11.68;;;;;;;8.60;77.08;101205.72;5023920;28;20101;-51
2023/04/28 00:41:23;;;;;;;16.38;12.32;;;;;;;8.55;77.80;101199.88;5035967;28;20109;-51
2023/04/28 00:43:49;;;;;;;14.30;12.07;;;;;;;8.50;78.21;101206.28;5035511;28;20021;-51
2023/04/28 00:46:31;;;;;;;19.38;13.13;;;;;;;8.47;79.46;101200.34;5038886;28;20025;-51
2023/04/28 00:48:57;;;;;;;16.10;12.52;;;;;;;8.41;79.74;101211.25;5045133;28;20514;-53
2023/04/28 00:51:22;;;;;;;17.83;12.15;;;;;;;8.35;79.20;101193.97;5038727;28;20033;-52
2023/04/28 00:53:49;;;;;;;18.40;12.95;;;;;;;8.31;80.33;101192.44;5034233;28;20079;-53
2023/04/28 00:56:15;;;;;;;18.17;12.93;;;;;;;8.26;80.51;101184.81;5036498;28;20052;-53
2023/04/28 00:58:40;;;;;;;17.58;12.00;;;;;;;8.23;80.87;101185.00;5046034;28;20024;-52
2023/04/28 01:01:08;;;;;;;17.85;13.18;;;;;;;8.18;81.25;101184.44;5048359;28;20041;-51
2023/04/28 01:03:36;;;;;;;17.15;12.25;;;;;;;8.15;81.68;101182.81;5031744;28;20898;-50
2023/04/28 01:06:03;;;;;;;16.90;12.93;;;;;;;8.10;81.24;101178.75;5045299;28;20029;-52
2023/04/28 01:08:34;;;;;;;16.52;12.57;;;;;;;8.07;81.86;101181.56;5038669;28;20491;-50
2023/04/28 01:10:59;;;;;;;16.85;12.60;;;;;;;8.05;82.26;101188.75;5033057;28;20027;-50
2023/04/28 01:13:25;;;;;;;18.67;12.85;;;;;;;8.03;81.89;101191.50;5032208;28;20487;-50
2023/04/28 01:15:51;;;;;;;18.70;13.25;;;;;;;7.99;82.71;101178.53;5022327;28;20506;-53
2023/04/28 01:18:16;;;;;;;16.67;12.95;;;;;;;7.98;83.23;101167.13;5046106;28;20031;-50
2023/04/28 01:20:42;;;;;;;19.80;13.07;;;;;;;7.98;83.67;101153.91;5046619;28;20135;-50
2023/04/28 01:23:12;;;;;;;19.65;12.82;;;;;;;7.97;83.42;101147.72;5040646;28;20116;-50
2023/04/28 01:25:37;;;;;;;15.15;12.43;;;;;;;7.94;84.40;101150.59;5032540;28;20060;-52
2023/04/28 01:28:02;;;;;;;20.33;13.13;;;;;;;7.94;83.61;101153.22;5026698;28;20108;-51
2023/04/28 01:30:28;;;;;;;16.75;13.48;;;;;;;7.93;83.99;101156.81;5025508;28;20022;-51
2023/04/28 01:32:53;;;;;;;18.70;13.77;;;;;;;7.92;84.99;101149.81;5035906;28;20028;-51
2023/04/28 01:35:18;;;;;;;17.52;13.70;;;;;;;7.93;84.14;101156.81;5035463;28;20101;-54
2023/04/28 01:37:43;;;;;;;16.60;13.30;;;;;;;7.95;84.99;101149.63;5036975;28;20021;-50
2023/04/28 01:40:09;;;;;;;16.90;13.73;;;;;;;7.95;85.28;101143.50;5042022;28;20056;-50
2023/04/28 01:42:34;;;;;;;19.13;13.63;;;;;;;7.94;86.18;101145.31;5037134;28;20029;-50
2023/04/28 01:45:00;;;;;;;19.83;13.77;;;;;;;7.93;85.94;101140.09;5036760;28;20111;-50
2023/04/28 01:47:25;;;;;;;17.90;13.70;;;;;;;7.92;85.41;101144.53;5034693;28;20029;-54
2023/04/28 01:49:50;;;;;;;19.08;13.52;;;;;;;7.90;85.20;101143.78;5031712;28;20033;-52
2023/04/28 01:52:18;;;;;;;20.02;13.90;;;;;;;7.90;85.54;101135.84;5031978;28;20025;-52
2023/04/28 01:54:43;;;;;;;22.20;14.50;;;;;;;7.89;85.97;101131.50;5031910;28;20032;-49
2023/04/28 01:57:09;;;;;;;18.83;14.35;;;;;;;7.90;85.84;101127.91;5031223;28;20046;-49
2023/04/28 01:59:34;;;;;;;19.05;14.30;;;;;;;7.90;87.89;101127.06;5037325;28;20022;-50
2023/04/28 02:01:59;;;;;;;19.00;13.80;;;;;;;7.89;86.86;101131.50;5038567;28;20026;-52
2023/04/28 02:04:25;;;;;;;21.00;14.10;;;;;;;7.89;86.96;101128.88;5039722;28;20028;-49
2023/04/28 02:06:50;;;;;;;18.70;14.60;;;;;;;7.88;87.51;101129.78;5033952;28;20029;-48
2023/04/28 02:09:15;;;;;;;19.15;14.18;;;;;;;7.90;87.25;101137.63;5036238;28;20025;-51
2023/04/28 02:11:40;;;;;;;19.60;15.10;;;;;;;7.91;88.33;101137.56;5030489;28;20025;-50
2023/04/28 02:14:06;;;;;;;19.60;13.52;;;;;;;7.91;87.37;101132.25;5038523;28;20059;-49
2023/04/28 02:16:32;;;;;;;21.02;14.52;;;;;;;7.92;88.14;101131.28;5033132;28;20037;-49
2023/04/28 02:18:57;;;;;;;20.90;14.80;;;;;;;7.92;87.81;101112.78;5039076;28;20483;-49
2023/04/28 02:21:23;;;;;;;19.42;14.10;;;;;;;7.91;87.73;101108.47;5034905;28;20036;-49
2023/04/28 02:23:49;;;;;;;21.15;15.20;;;;;;;7.92;88.73;101107.50;5033550;28;20038;-49
2023/04/28 02:26:14;;;;;;;22.10;14.98;;;;;;;7.95;87.66;101104.66;5031652;28;20489;-49
2023/04/28 02:28:39;;;;;;;22.70;14.88;;;;;;;7.95;87.45;101099.38;5020693;28;20041;-48
2023/04/28 02:31:07;;;;;;;19.67;14.25;;;;;;;7.97;87.73;101081.59;5038474;28;20036;-48
2023/04/28 02:33:32;;;;;;;20.08;14.40;;;;;;;7.96;87.98;101069.34;5033124;28;20052;-49
2023/04/28 02:35:59;;;;;;;21.33;15.25;;;;;;;7.95;87.51;101054.41;5041513;28;20022;-48
2023/04/28 02:38:24;;;;;;;18.40;15.20;;;;;;;7.93;87.29;101048.38;5031489;28;20117;-49
2023/04/28 02:40:57;;;;;;;18.85;15.90;;;;;;;7.93;88.10;101031.66;5035112;28;20025;-49
2023/04/28 02:43:22;;;;;;;19.77;15.05;;;;;;;7.90;87.89;101027.41;5040132;28;20329;-50
2023/04/28 02:45:48;;;;;;;19.92;14.70;;;;;;;7.91;88.73;101025.59;5042230;28;20040;-48
2023/04/28 02:48:13;;;;;;;20.75;15.82;;;;;;;7.90;88.18;101029.22;5040648;28;20497;-49
2023/04/28 02:50:38;;;;;;;20.73;15.65;;;;;;;7.89;88.75;101012.50;5034278;28;20064;-49
2023/04/28 02:53:03;;;;;;;19.65;15.15;;;;;;;7.88;87.84;101024.00;5038137;28;20032;-48
2023/04/28 02:55:29;;;;;;;20.77;15.88;;;;;;;7.88;88.78;101031.94;5030937;28;20056;-49
2023/04/28 02:57:54;;;;;;;23.05;15.45;;;;;;;7.90;88.61;101042.44;5044150;28;20021;-49
2023/04/28 03:00:19;;;;;;;20.55;15.95;;;;;;;7.93;89.33;101034.31;5039532;28;20025;-48
2023/04/28 03:02:45;;;;;;;21.95;15.38;;;;;;;7.94;89.35;101031.56;5045277;28;20375;-50
2023/04/28 03:05:10;;;;;;;21.38;15.95;;;;;;;7.95;89.41;101027.13;5035477;28;20022;-49
2023/04/28 03:07:36;;;;;;;18.65;15.38;;;;;;;7.97;89.85;101030.50;5036836;28;20495;-48
2023/04/28 03:10:01;;;;;;;19.17;15.80;;;;;;;7.98;89.28;101029.59;5035374;28;20029;-48
2023/04/28 03:12:26;;;;;;;19.63;15.13;;;;;;;7.99;89.27;101025.13;5036910;28;20505;-49
2023/04/28 03:14:51;;;;;;;21.92;15.70;;;;;;;8.00;89.49;101024.19;5037425;28;20033;-48
2023/04/28 03:17:17;;;;;;;21.45;15.40;;;;;;;8.02;90.24;101027.59;5039690;28;20502;-49
2023/04/28 03:19:42;;;;;;;21.30;15.90;;;;;;;8.02;88.98;101025.78;5033417;28;20025;-48
2023/04/28 03:22:07;;;;;;;20.10;16.15;;;;;;;8.02;89.52;101033.72;5039926;28;20438;-49
2023/04/28 03:24:32;;;;;;;20.30;15.27;;;;;;;8.03;89.72;101029.31;5035747;28;20365;-48
2023/04/28 03:26:58;;;;;;;20.77;15.50;;;;;;;8.03;89.49;101038.06;5037210;28;20033;-48
2023/04/28 03:29:24;;;;;;;20.08;15.45;;;;;;;8.05;90.21;101036.16;5024168;28;20025;-48
2023/04/28 03:31:49;;;;;;;22.00;15.75;;;;;;;8.04;89.89;101034.47;5038192;28;20098;-48
2023/04/28 03:34:15;;;;;;;21.90;16.33;;;;;;;8.05;89.34;101032.69;5042482;28;20026;-48
2023/04/28 03:36:40;;;;;;;19.35;15.05;;;;;;;8.07;90.44;101028.13;5036934;28;20033;-48
2023/04/28 03:39:06;;;;;;;20.92;16.38;;;;;;;8.09;90.36;101020.94;5041311;28;20100;-49
2023/04/28 03:41:31;;;;;;;22.67;16.70;;;;;;;8.11;90.87;101013.75;5041127;28;20501;-48
2023/04/28 03:43:56;;;;;;;19.92;16.13;;;;;;;8.13;90.69;101012.72;5040310;28;20026;-49
2023/04/28 03:46:21;;;;;;;22.92;16.95;;;;;;;8.15;90.40;101012.63;5041470;28;20555;-49
2023/04/28 03:48:47;;;;;;;21.42;16.65;;;;;;;8.18;90.21;101017.75;5047879;28;20040;-50
2023/04/28 03:51:12;;;;;;;21.85;16.27;;;;;;;8.19;90.41;101011.47;5043335;28;20021;-51
2023/04/28 03:53:37;;;;;;;24.63;16.48;;;;;;;8.19;90.47;100998.25;5036278;28;20475;-51
2023/04/28 03:56:03;;;;;;;23.80;17.00;;;;;;;8.22;91.31;101007.81;5041510;28;20063;-49
2023/04/28 03:58:28;;;;;;;24.20;17.27;;;;;;;8.22;91.39;100992.75;5042104;28;20021;-50
2023/04/28 04:00:53;;;;;;;20.73;16.48;;;;;;;8.24;91.20;100995.31;5039392;28;20068;-52
2023/04/28 04:03:21;;;;;;;23.75;16.42;;;;;;;8.26;91.08;100996.06;5034543;28;20057;-51
2023/04/28 04:05:47;;;;;;;21.23;16.25;;;;;;;8.26;90.65;100991.63;5026675;28;20030;-50
2023/04/28 04:08:12;;;;;;;21.05;17.55;;;;;;;8.27;91.66;100993.31;5035276;28;20475;-50
2023/04/28 04:10:37;;;;;;;21.55;16.50;;;;;;;8.29;91.36;100993.22;5042609;28;20025;-50
2023/04/28 04:13:02;;;;;;;20.85;16.63;;;;;;;8.31;91.46;100991.31;5037803;28;20021;-49
2023/04/28 04:15:28;;;;;;;23.27;17.23;;;;;;;8.30;92.28;100990.47;5036841;28;20029;-49
2023/04/28 04:17:53;;;;;;;20.95;16.27;;;;;;;8.34;91.93;100993.75;5035994;28;20029;-50
2023/04/28 04:20:18;;;;;;;21.63;15.93;;;;;;;8.36;92.17;101001.59;5033707;28;20025;-50
2023/04/28 04:22:44;;;;;;;23.15;17.10;;;;;;;8.36;91.99;100999.84;5032924;28;20471;-51
2023/04/28 04:25:09;;;;;;;25.10;16.98;;;;;;;8.36;92.12;100996.31;5029768;28;20037;-49
2023/04/28 04:27:35;;;;;;;20.63;16.63;;;;;;;8.38;92.55;100997.94;5032589;28;20118;-49
2023/04/28 04:30:00;;;;;;;23.13;16.00;;;;;;;8.37;92.59;100993.56;5031427;28;20035;-49
2023/04/28 04:32:25;;;;;;;20.85;16.35;;;;;;;8.40;92.02;100995.19;5040566;28;20025;-50
2023/04/28 04:34:51;;;;;;;23.83;16.92;;;;;;;8.40;92.70;100998.66;5033300;28;20079;-50
2023/04/28 04:37:16;;;;;;;23.05;16.48;;;;;;;8.42;93.20;100987.97;5035224;28;20028;-52
2023/04/28 04:39:41;;;;;;;24.02;16.65;;;;;;;8.43;93.20;100971.19;5032206;28;20025;-52
2023/04/28 04:42:06;;;;;;;21.35;16.88;;;;;;;8.45;92.88;100966.66;5035121;28;20056;-50
2023/04/28 04:44:32;;;;;;;23.88;16.40;;;;;;;8.46;92.89;100969.19;5046843;28;20025;-51
2023/04/28 04:46:57;;;;;;;22.30;16.55;;;;;;;8.47;93.05;100954.16;5043925;28;20086;-50
2023/04/28 04:49:22;;;;;;;21.27;15.70;;;;;;;8.48;93.68;100963.81;5036616;28;20032;-49
2023/04/28 04:51:48;;;;;;;21.85;16.55;;;;;;;8.49;93.33;100952.25;5040926;28;20037;-52
2023/04/28 04:54:13;;;;;;;25.15;16.38;;;;;;;8.51;93.85;100953.84;5044513;28;20428;-48
2023/04/28 04:56:38;;;;;;;23.42;16.48;;;;;;;8.54;93.88;100950.13;5035118;28;20041;-49
2023/04/28 04:59:03;;;;;;;20.90;16.02;;;;;;;8.56;94.24;100953.56;5043911;28;20032;-50
2023/04/28 05:01:29;;;;;;;20.83;16.52;;;;;;;8.57;94.01;100955.22;5042335;28;20033;-49
2023/04/28 05:03:54;;;;;;;21.02;16.35;;;;;;;8.60;94.11;100957.69;5034935;28;20068;-50
2023/04/28 05:06:20;;;;;;;22.75;16.88;;;;;;;8.63;94.26;100951.34;5034955;28;20029;-50
2023/04/28 05:08:45;;;;;;;21.55;15.85;;;;;;;8.65;95.20;100954.72;5030611;28;20144;-49
2023/04/28 05:11:10;;;;;;;22.17;16.67;;;;;;;8.67;94.69;100945.72;5027624;28;20091;-49
2023/04/28 05:13:36;;;;;;;19.83;16.05;;;;;;;8.71;95.45;100943.75;5022424;28;20041;-50
2023/04/28 05:16:01;;;;;;;21.83;16.13;;;;;;;8.72;95.05;100948.06;5020776;28;20066;-50
2023/04/28 05:18:26;;;;;;;22.23;15.90;;;;;;;8.74;95.25;100946.16;5027220;28;20031;-49
2023/04/28 05:20:51;;;;;;;25.52;17.05;;;;;;;8.78;95.68;100954.78;5024491;28;20472;-50
2023/04/28 05:23:17;;;;;;;20.67;16.40;;;;;;;8.80;95.73;100956.34;5025402;28;20021;-49
2023/04/28 05:25:43;;;;;;;22.77;16.23;;;;;;;8.82;95.90;100953.59;5025774;28;20040;-50
2023/04/28 05:28:09;;;;;;;18.95;16.13;;;;;;;8.85;95.69;100956.88;5024535;28;20084;-49
2023/04/28 05:30:34;;;;;;;24.67;16.88;;;;;;;8.87;95.70;100959.44;5035165;28;20083;-51
2023/04/28 05:33:00;;;;;;;22.85;15.70;;;;;;;8.91;95.64;100960.94;5046677;28;20028;-49
2023/04/28 05:35:25;;;;;;;20.33;16.05;;;;;;;8.94;96.29;100957.22;5040634;28;20033;-49
2023/04/28 05:37:51;;;;;;;21.38;17.02;;;;;;;8.96;96.60;100956.16;5035485;28;20064;-49
2023/04/28 05:40:16;;;;;;;22.02;16.25;;;;;;;8.96;96.24;100955.31;5034211;28;20045;-49
2023/04/28 05:42:41;;;;;;;19.10;16.30;;;;;;;8.98;96.60;100956.91;5032908;28;20033;-49
2023/04/28 05:45:07;;;;;;;21.23;15.98;;;;;;;9.01;96.96;100951.41;5031738;28;20467;-49
2023/04/28 05:47:32;;;;;;;24.55;16.90;;;;;;;9.03;97.08;100954.78;5033831;28;20079;-49
2023/04/28 05:49:58;;;;;;;20.02;15.82;;;;;;;9.07;97.39;100958.06;5031569;28;20075;-49
2023/04/28 05:52:23;;;;;;;23.30;16.33;;;;;;;9.11;97.56;100948.97;5032248;28;20021;-48
2023/04/28 05:54:48;;;;;;;22.05;16.60;;;;;;;9.15;97.93;100949.59;5031729;28;20121;-52
2023/04/28 05:57:14;;;;;;;21.95;15.88;;;;;;;9.20;97.70;100944.84;5030711;28;20088;-49
2023/04/28 05:59:39;;;;;;;23.55;16.52;;;;;;;9.24;97.98;100941.00;5032131;28;20030;-50
2023/04/28 06:02:05;;;;;;;21.83;16.40;;;;;;;9.26;98.09;100942.59;5034035;28;20475;-51
2023/04/28 06:04:30;;;;;;;22.90;16.33;;;;;;;9.32;98.74;100945.78;5025080;28;20518;-50
2023/04/28 06:06:56;;;;;;;21.25;15.48;;;;;;;9.35;98.51;100938.47;5034117;28;20164;-50
2023/04/28 06:09:21;;;;;;;26.52;16.05;;;;;;;9.40;99.00;100943.44;5032594;28;20022;-49
2023/04/28 06:11:46;;;;;;;24.02;16.42;;;;;;;9.44;98.87;100937.81;5020192;28;20087;-50
2023/04/28 06:14:12;;;;;;;19.70;15.75;;;;;;;9.51;99.28;100943.53;5028754;28;20025;-52
2023/04/28 06:16:37;;;;;;;17.77;14.45;;;;;;;9.54;99.17;100935.38;5034018;28;20035;-49
2023/04/28 06:19:02;;;;;;;20.38;14.70;;;;;;;9.58;99.91;100936.00;5030542;28;20030;-49
2023/04/28 06:21:28;;;;;;;20.58;16.70;;;;;;;9.62;100.00;100937.47;5014147;28;20064;-49
2023/04/28 06:23:53;;;;;;;19.55;15.93;;;;;;;9.67;100.00;100940.63;5027607;28;20550;-49
2023/04/28 06:26:18;;;;;;;21.17;16.40;;;;;;;9.72;100.00;100942.97;5021972;28;20412;-49
2023/04/28 06:28:44;;;;;;;20.73;15.55;;;;;;;9.75;100.00;100932.16;5024473;28;20041;-51
2023/04/28 06:31:09;;;;;;;19.67;15.63;;;;;;;9.81;100.00;100940.50;5041413;28;20083;-48
2023/04/28 06:33:35;;;;;;;25.83;16.05;;;;;;;9.87;100.00;100938.38;5029685;28;20076;-49
2023/04/28 06:36:00;;;;;;;20.58;16.30;;;;;;;9.92;100.00;100941.53;5031235;28;20391;-51
2023/04/28 06:38:25;;;;;;;21.08;16.25;;;;;;;9.95;100.00;100941.31;5032437;28;20045;-50
2023/04/28 06:40:50;;;;;;;21.02;15.70;;;;;;;10.00;100.00;100947.13;5031069;28;20490;-49
2023/04/28 06:43:16;;;;;;;24.17;16.35;;;;;;;10.04;100.00;100951.25;5026846;28;20036;-49
2023/04/28 06:45:41;;;;;;;21.23;15.68;;;;;;;10.06;100.00;100944.03;5030322;28;20048;-52
2023/04/28 06:48:07;;;;;;;18.33;15.82;;;;;;;10.09;100.00;100935.88;5027227;28;20041;-50
2023/04/28 06:50:32;;;;;;;23.50;14.73;;;;;;;10.11;100.00;100933.94;5027060;28;20386;-49
2023/04/28 06:52:57;;;;;;;22.08;15.82;;;;;;;10.15;100.00;100931.91;5025153;28;20088;-49
2023/04/28 06:55:23;;;;;;;18.13;15.00;;;;;;;10.15;100.00;100932.72;5039695;28;20033;-49
2023/04/28 06:57:48;;;;;;;20.10;15.68;;;;;;;10.19;100.00;100928.91;5029924;28;20617;-49
2023/04/28 07:00:14;;;;;;;21.27;15.80;;;;;;;10.23;100.00;100923.38;5034508;28;20544;-50
2023/04/28 07:02:40;;;;;;;19.60;15.48;;;;;;;10.27;100.00;100924.84;5026913;28;20046;-50
2023/04/28 07:05:05;;;;;;;19.95;16.10;;;;;;;10.31;100.00;100923.66;5029876;28;20044;-50
2023/04/28 07:07:31;;;;;;;21.55;16.27;;;;;;;10.34;100.00;100915.47;5020646;28;20466;-50
2023/04/28 07:09:57;;;;;;;21.13;16.15;;;;;;;10.37;100.00;100923.22;5028777;28;20514;-51
2023/04/28 07:12:23;;;;;;;21.38;15.82;;;;;;;10.40;100.00;100927.47;5025658;28;20034;-52
2023/04/28 07:14:49;;;;;;;18.92;16.42;;;;;;;10.44;100.00;100919.16;5028799;28;20033;-50
2023/04/28 07:17:15;;;;;;;20.38;16.23;;;;;;;10.52;100.00;100916.78;5029965;28;20148;-53
2023/04/28 07:19:40;;;;;;;18.17;15.13;;;;;;;10.59;100.00;100921.59;5039483;28;20104;-50
2023/04/28 07:22:06;;;;;;;19.05;14.50;;;;;;;10.64;100.00;100919.44;5030101;28;20053;-53
2023/04/28 07:24:31;;;;;;;16.40;14.43;;;;;;;10.70;100.00;100916.34;5030319;28;20033;-49
2023/04/28 07:26:57;;;;;;;16.73;14.88;;;;;;;10.74;100.00;100921.31;5031724;28;20034;-50
2023/04/28 07:29:22;;;;;;;17.80;14.70;;;;;;;10.81;100.00;100920.81;5025202;28;20131;-50
2023/04/28 07:31:48;;;;;;;17.08;14.82;;;;;;;10.86;100.00;100916.03;5030945;28;20104;-49
2023/04/28 07:34:13;;;;;;;20.63;15.48;;;;;;;10.88;100.00;100927.38;5021776;28;20414;-49
2023/04/28 07:36:39;;;;;;;18.00;13.93;;;;;;;10.92;100.00;100927.03;5021445;28;20065;-49
2023/04/28 07:39:04;;;;;;;17.67;14.02;;;;;;;10.98;100.00;100938.16;5031926;28;20048;-49
2023/04/28 07:41:30;;;;;;;15.98;13.98;;;;;;;10.99;100.00;100937.16;5025775;28;20109;-49
2023/04/28 07:43:55;;;;;;;15.38;13.52;;;;;;;11.02;100.00;100935.13;5029933;28;20411;-49
2023/04/28 07:46:21;;;;;;;17.02;14.13;;;;;;;11.05;100.00;100936.72;5028413;28;20034;-49
2023/04/28 07:48:46;;;;;;;18.15;15.00;;;;;;;11.07;100.00;100935.63;5030800;28;20124;-49
2023/04/28 07:51:12;;;;;;;20.88;15.50;;;;;;;11.12;100.00;100932.59;5035072;28;20116;-50
2023/04/28 07:53:37;;;;;;;18.45;15.52;;;;;;;11.16;100.00;100934.06;5029605;28;20074;-52
2023/04/28 07:56:02;;;;;;;19.83;15.93;;;;;;;11.20;100.00;100935.50;5032504;28;20041;-50
2023/04/28 07:58:28;;;;;;;18.80;15.63;;;;;;;11.22;100.00;100930.91;5035312;28;20041;-50
2023/04/28 08:00:53;;;;;;;19.35;16.42;;;;;;;11.25;100.00;100935.16;5030463;28;20046;-56
2023/04/28 08:03:18;;;;;;;19.48;16.60;;;;;;;11.26;100.00;100929.72;5026484;28;20190;-55
2023/04/28 08:05:44;;;;;;;19.60;16.10;;;;;;;11.28;100.00;100932.25;5030216;28;20033;-56
2023/04/28 08:08:10;;;;;;;21.77;17.25;;;;;;;11.33;100.00;100938.06;5024106;28;20034;-54
2023/04/28 08:10:36;;;;;;;21.17;16.02;;;;;;;11.36;100.00;100940.50;5028489;28;20036;-52
2023/04/28 08:13:02;;;;;;;20.48;17.67;;;;;;;11.39;100.00;100932.28;5024356;28;20245;-54
2023/04/28 08:15:27;;;;;;;19.60;16.50;;;;;;;11.39;100.00;100929.63;5026414;28;20123;-52
2023/04/28 08:17:53;;;;;;;19.13;15.77;;;;;;;11.40;100.00;100928.63;5025849;28;20053;-52
2023/04/28 08:20:18;;;;;;;19.65;16.80;;;;;;;11.43;100.00;100923.06;5026603;28;20030;-53
2023/04/28 08:22:44;;;;;;;18.75;16.83;;;;;;;11.46;100.00;100925.50;5029261;28;20037;-54
2023/04/28 08:25:10;;;;;;;21.08;17.40;;;;;;;11.48;100.00;100930.69;5030513;28;20087;-52
2023/04/28 08:27:37;;;;;;;21.92;17.92;;;;;;;11.50;100.00;100925.25;5024990;28;20034;-52
2023/04/28 08:30:03;;;;;;;19.45;17.45;;;;;;;11.55;100.00;100929.22;5035645;28;20033;-52
2023/04/28 08:32:28;;;;;;;22.08;17.65;;;;;;;11.58;100.00;100925.50;5032232;28;20033;-51
2023/04/28 08:34:54;;;;;;;20.10;17.98;;;;;;;11.64;100.00;100925.84;5039707;28;20057;-52
2023/04/28 08:37:19;;;;;;;21.85;19.02;;;;;;;11.72;100.00;100929.69;5038248;28;20032;-51
2023/04/28 08:39:45;;;;;;;20.60;18.17;;;;;;;11.77;100.00;100931.00;5043960;28;20036;-53
2023/04/28 08:42:10;;;;;;;19.92;17.83;;;;;;;11.84;100.00;100928.75;5036135;28;20021;-51
2023/04/28 08:44:39;;;;;;;21.67;17.88;;;;;;;11.93;100.00;100932.50;5037114;28;20468;-51
2023/04/28 08:47:13;;;;;;;21.13;18.50;;;;;;;11.94;100.00;100927.06;5017949;28;20033;-53
2023/04/28 08:49:38;;;;;;;22.02;18.65;;;;;;;11.99;100.00;100932.84;5029216;28;20390;-54
2023/04/28 08:52:15;;;;;;;24.25;18.95;;;;;;;12.06;100.00;100927.00;5020220;28;20037;-53
2023/04/28 08:54:41;;;;;;;22.55;18.65;;;;;;;12.14;100.00;100925.41;4997744;28;20033;-51
2023/04/28 08:57:10;;;;;;;21.35;17.90;;;;;;;12.20;100.00;100932.88;5022044;28;20192;-51
2023/04/28 08:59:40;;;;;;;21.30;18.90;;;;;;;12.24;100.00;100940.63;5025124;28;20055;-51
2023/04/28 09:02:07;;;;;;;19.30;17.40;;;;;;;12.27;100.00;100938.56;5027322;28;20487;-51
2023/04/28 09:04:32;;;;;;;21.05;18.58;;;;;;;12.30;100.00;100938.31;5027796;28;20036;-52
2023/04/28 09:06:58;;;;;;;21.95;19.33;;;;;;;12.34;100.00;100937.09;5029552;28;20487;-51
2023/04/28 09:09:26;;;;;;;23.70;19.30;;;;;;;12.39;100.00;100934.06;5024685;28;20025;-52
2023/04/28 09:11:51;;;;;;;21.20;18.52;;;;;;;12.43;100.00;100937.31;5030564;28;20056;-52
2023/04/28 09:14:16;;;;;;;20.55;18.20;;;;;;;12.49;100.00;100931.44;5033729;28;20119;-52
2023/04/28 09:16:42;;;;;;;21.45;19.20;;;;;;;12.54;100.00;100924.78;5033365;28;20382;-53
2023/04/28 09:19:08;;;;;;;21.42;19.20;;;;;;;12.57;100.00;100924.53;5038180;28;20074;-54
2023/04/28 09:21:45;;;;;;;24.10;19.33;;;;;;;12.67;100.00;100934.41;5024063;28;20030;-52
2023/04/28 09:24:24;;;;;;;21.85;19.15;;;;;;;12.71;100.00;100920.69;5010944;28;20502;-52
2023/04/28 09:26:49;;;;;;;;;;;;;;;12.81;100.00;100933.25;5017929;28;20033;-50
2023/04/28 09:29:15;;;;;;;23.83;19.80;;;;;;;12.81;100.00;100933.25;5014825;28;20003;-52
2023/04/28 09:31:41;;;;;;;22.67;19.80;;;;;;;12.83;100.00;100928.63;5018638;28;20495;-51
2023/04/28 09:34:08;;;;;;;23.25;19.73;;;;;;;12.86;100.00;100928.38;5027551;28;20034;-52
2023/04/28 09:36:33;;;;;;;26.08;20.52;;;;;;;12.89;100.00;100936.94;5018040;28;20076;-50
2023/04/28 09:38:59;;;;;;;23.38;20.40;;;;;;;12.93;100.00;100934.88;5024471;28;20025;-51
2023/04/28 09:41:42;;;;;;;22.83;20.38;;;;;;;12.96;100.00;100943.44;5035299;28;20044;-51
2023/04/28 09:44:14;;;;;;;23.05;20.25;;;;;;;12.94;100.00;100932.06;5028600;28;20083;-51
2023/04/28 09:46:40;;;;;;;23.23;20.73;;;;;;;12.92;100.00;100942.03;5031699;28;20029;-52
2023/04/28 09:49:06;;;;;;;22.83;20.27;;;;;;;12.91;100.00;100939.50;5018973;28;20053;-51
2023/04/28 09:51:31;;;;;;;23.30;20.90;;;;;;;12.92;100.00;100941.16;5018757;28;20064;-51
2023/04/28 09:53:59;;;;;;;24.17;21.55;;;;;;;12.94;100.00;100944.56;5022800;28;20041;-51
2023/04/28 09:56:28;;;;;;;26.95;24.13;;;;;;;12.93;100.00;100937.53;5016340;28;20045;-51
2023/04/28 09:58:56;;;;;;;28.92;25.90;;;;;;;12.95;100.00;100943.56;5027446;28;20037;-50
2023/04/28 10:01:21;;;;;;;34.47;28.75;;;;;;;12.92;100.00;100947.34;5028153;28;20437;-51
2023/04/28 10:03:48;;;;;;;35.92;31.05;;;;;;;12.96;100.00;100945.28;5025971;28;20025;-50
2023/04/28 10:06:14;;;;;;;39.58;32.60;;;;;;;12.98;100.00;100942.47;5040344;28;20498;-50
2023/04/28 10:08:40;;;;;;;42.40;36.58;;;;;;;13.00;100.00;100936.03;5035379;28;20032;-52
2023/04/28 10:11:05;;;;;;;44.00;37.60;;;;;;;13.04;100.00;100937.47;5042065;28;20033;-51
2023/04/28 10:13:31;;;;;;;48.45;39.50;;;;;;;13.04;100.00;100941.94;5033707;28;20026;-51
2023/04/28 10:15:57;;;;;;;48.60;39.35;;;;;;;13.09;100.00;100945.91;5035858;28;20040;-52
2023/04/28 10:18:23;;;;;;;52.50;40.15;;;;;;;13.13;100.00;100943.81;5034052;28;20348;-53
2023/04/28 10:20:56;;;;;;;50.47;40.53;;;;;;;13.17;100.00;100937.22;5034544;28;20025;-51
2023/04/28 10:23:34;;;;;;;48.88;40.55;;;;;;;13.22;100.00;100940.38;5042894;28;20121;-52
2023/04/28 10:26:02;;;;;;;44.28;37.60;;;;;;;13.28;100.00;100939.00;5026229;28;20041;-51
2023/04/28 10:28:28;;;;;;;43.95;38.78;;;;;;;13.31;100.00;100941.41;5021786;28;20107;-50
2023/04/28 10:31:16;;;;;;;47.28;37.90;;;;;;;13.34;100.00;100933.16;5034446;28;20134;-53
2023/04/28 10:33:42;;;;;;;41.97;35.67;;;;;;;13.34;100.00;100938.50;5030814;28;20022;-52
2023/04/28 10:36:08;;;;;;;39.50;35.25;;;;;;;13.37;100.00;100942.72;5036427;28;20068;-52
2023/04/28 10:38:34;;;;;;;41.22;36.42;;;;;;;13.40;100.00;100937.09;5028148;28;20484;-51
2023/04/28 10:41:01;;;;;;;38.00;34.00;;;;;;;13.44;100.00;100931.38;5036679;28;20037;-51
2023/04/28 10:43:27;;;;;;;38.30;34.30;;;;;;;13.54;100.00;100922.56;5041140;28;20033;-51
2023/04/28 10:45:55;;;;;;;37.67;33.75;;;;;;;13.58;100.00;100929.31;5030841;28;20163;-50
2023/04/28 10:48:32;;;;;;;37.53;33.63;;;;;;;13.66;100.00;100924.16;5029796;28;20057;-51
2023/04/28 10:51:08;;;;;;;34.35;30.95;;;;;;;13.69;100.00;100929.22;5032672;28;20033;-53
2023/04/28 10:53:45;;;;;;;34.33;31.02;;;;;;;13.76;100.00;100926.84;5029481;28;20109;-50
2023/04/28 10:56:18;;;;;;;32.97;29.73;;;;;;;13.80;100.00;100915.75;5036190;28;20525;-50
2023/04/28 10:58:51;;;;;;;31.38;28.08;;;;;;;13.90;100.00;100925.63;5033782;28;20033;-51
2023/04/28 11:01:19;;;;;;;30.77;27.75;;;;;;;13.96;100.00;100923.25;5038195;28;20561;-52
2023/04/28 11:03:48;;;;;;;30.90;27.93;;;;;;;14.04;100.00;100918.06;5025633;28;20065;-51
2023/04/28 11:06:25;;;;;;;30.20;27.30;;;;;;;14.14;100.00;100914.53;5019459;28;20048;-50